sensor_id;sensor_type;location;lat;lon;timestamp;temperature;humidity
51655;DHT22;37732;53.106;7.030;2022-08-18T00:01:54;18.60;99.90
51655;DHT22;37732;53.106;7.030;2022-08-18T00:04:22;18.60;99.90
51655;DHT22;37732;53.106;7.030;2022-08-18T00:06:48;18.60;99.90
51655;DHT22;37732;53.106;7.030;2022-08-18T00:09:14;18.60;99.90
51655;DHT22;37732;53.106;7.030;2022-08-18T00:11:41;18.60;99.90
51655;DHT22;37732;53.106;7.030;2022-08-18T00:14:13;18.60;99.90
51655;DHT22;37732;53.106;7.030;2022-08-18T00:16:40;18.70;99.90
51655;DHT22;37732;53.106;7.030;2022-08-18T00:19:06;18.60;99.90
51655;DHT22;37732;53.106;7.030;2022-08-18T00:21:32;18.60;99.90
51655;DHT22;37732;53.106;7.030;2022-08-18T00:23:58;18.60;99.90
51655;DHT22;37732;53.106;7.030;2022-08-18T00:26:24;18.60;99.90
51655;DHT22;37732;53.106;7.030;2022-08-18T00:28:49;18.60;99.90
51655;DHT22;37732;53.106;7.030;2022-08-18T00:31:15;18.60;99.90
51655;DHT22;37732;53.106;7.030;2022-08-18T00:33:41;18.60;99.90
51655;DHT22;37732;53.106;7.030;2022-08-18T00:36:09;18.60;99.90
51655;DHT22;37732;53.106;7.030;2022-08-18T00:38:36;18.50;99.90
51655;DHT22;37732;53.106;7.030;2022-08-18T00:41:02;18.50;99.90
51655;DHT22;37732;53.106;7.030;2022-08-18T00:43:39;18.50;99.90
51655;DHT22;37732;53.106;7.030;2022-08-18T00:46:14;18.50;99.90
51655;DHT22;37732;53.106;7.030;2022-08-18T00:48:40;18.50;99.90
51655;DHT22;37732;53.106;7.030;2022-08-18T00:51:15;18.50;99.90
51655;DHT22;37732;53.106;7.030;2022-08-18T00:53:49;18.40;99.90
51655;DHT22;37732;53.106;7.030;2022-08-18T00:56:24;18.40;99.90
51655;DHT22;37732;53.106;7.030;2022-08-18T00:59:00;18.40;99.90
51655;DHT22;37732;53.106;7.030;2022-08-18T01:01:31;18.40;99.90
51655;DHT22;37732;53.106;7.030;2022-08-18T01:04:35;18.40;99.90
51655;DHT22;37732;53.106;7.030;2022-08-18T01:07:10;18.40;99.90
51655;DHT22;37732;53.106;7.030;2022-08-18T01:09:37;18.40;99.90
51655;DHT22;37732;53.106;7.030;2022-08-18T01:12:03;18.30;99.90
51655;DHT22;37732;53.106;7.030;2022-08-18T01:14:30;18.30;99.90
51655;DHT22;37732;53.106;7.030;2022-08-18T01:16:56;18.30;99.90
51655;DHT22;37732;53.106;7.030;2022-08-18T01:19:40;18.30;99.90
51655;DHT22;37732;53.106;7.030;2022-08-18T01:22:29;18.30;99.90
51655;DHT22;37732;53.106;7.030;2022-08-18T01:24:59;18.30;99.90
51655;DHT22;37732;53.106;7.030;2022-08-18T01:27:44;18.30;99.90
51655;DHT22;37732;53.106;7.030;2022-08-18T01:30:14;18.20;99.90
51655;DHT22;37732;53.106;7.030;2022-08-18T01:32:41;18.20;99.90
51655;DHT22;37732;53.106;7.030;2022-08-18T01:35:12;18.20;99.90
51655;DHT22;37732;53.106;7.030;2022-08-18T01:37:39;18.20;99.90
51655;DHT22;37732;53.106;7.030;2022-08-18T01:40:07;18.20;99.90
51655;DHT22;37732;53.106;7.030;2022-08-18T01:42:35;18.10;99.90
51655;DHT22;37732;53.106;7.030;2022-08-18T01:45:01;18.10;99.90
51655;DHT22;37732;53.106;7.030;2022-08-18T01:47:31;18.10;99.90
51655;DHT22;37732;53.106;7.030;2022-08-18T01:49:57;18.10;99.90
51655;DHT22;37732;53.106;7.030;2022-08-18T01:52:23;18.00;99.90
51655;DHT22;37732;53.106;7.030;2022-08-18T01:54:50;18.00;99.90
51655;DHT22;37732;53.106;7.030;2022-08-18T01:57:18;18.00;99.90
51655;DHT22;37732;53.106;7.030;2022-08-18T01:59:44;18.10;99.90
51655;DHT22;37732;53.106;7.030;2022-08-18T02:02:13;18.10;99.90
51655;DHT22;37732;53.106;7.030;2022-08-18T02:04:42;18.10;99.90
51655;DHT22;37732;53.106;7.030;2022-08-18T02:07:10;18.10;99.90
51655;DHT22;37732;53.106;7.030;2022-08-18T02:09:37;18.10;99.90
51655;DHT22;37732;53.106;7.030;2022-08-18T02:12:04;18.10;99.90
51655;DHT22;37732;53.106;7.030;2022-08-18T02:14:33;18.10;99.90
51655;DHT22;37732;53.106;7.030;2022-08-18T02:17:01;18.20;99.90
51655;DHT22;37732;53.106;7.030;2022-08-18T02:19:35;18.20;99.90
51655;DHT22;37732;53.106;7.030;2022-08-18T02:22:02;18.20;99.90
51655;DHT22;37732;53.106;7.030;2022-08-18T02:24:27;18.20;99.90
51655;DHT22;37732;53.106;7.030;2022-08-18T02:26:53;18.20;99.90
51655;DHT22;37732;53.106;7.030;2022-08-18T02:29:19;18.30;99.90
51655;DHT22;37732;53.106;7.030;2022-08-18T02:31:45;18.30;99.90
51655;DHT22;37732;53.106;7.030;2022-08-18T02:34:10;18.20;99.90
51655;DHT22;37732;53.106;7.030;2022-08-18T02:36:36;18.30;99.90
51655;DHT22;37732;53.106;7.030;2022-08-18T02:39:03;18.30;99.90
51655;DHT22;37732;53.106;7.030;2022-08-18T02:41:29;18.30;99.90
51655;DHT22;37732;53.106;7.030;2022-08-18T02:43:56;18.30;99.90
51655;DHT22;37732;53.106;7.030;2022-08-18T02:46:22;18.30;99.90
51655;DHT22;37732;53.106;7.030;2022-08-18T02:48:48;18.30;99.90
51655;DHT22;37732;53.106;7.030;2022-08-18T02:51:16;18.30;99.90
51655;DHT22;37732;53.106;7.030;2022-08-18T02:53:44;18.30;99.90
51655;DHT22;37732;53.106;7.030;2022-08-18T02:56:19;18.30;99.90
51655;DHT22;37732;53.106;7.030;2022-08-18T02:58:57;18.30;99.90
51655;DHT22;37732;53.106;7.030;2022-08-18T03:01:27;18.30;99.90
51655;DHT22;37732;53.106;7.030;2022-08-18T03:03:53;18.30;99.90
51655;DHT22;37732;53.106;7.030;2022-08-18T03:06:20;18.30;99.90
51655;DHT22;37732;53.106;7.030;2022-08-18T03:08:45;18.40;99.90
51655;DHT22;37732;53.106;7.030;2022-08-18T03:11:21;18.30;99.90
51655;DHT22;37732;53.106;7.030;2022-08-18T03:13:47;18.40;99.90
51655;DHT22;37732;53.106;7.030;2022-08-18T03:16:13;18.40;99.90
51655;DHT22;37732;53.106;7.030;2022-08-18T03:18:41;18.40;99.90
51655;DHT22;37732;53.106;7.030;2022-08-18T03:21:08;18.40;99.90
51655;DHT22;37732;53.106;7.030;2022-08-18T03:23:35;18.40;99.90
51655;DHT22;37732;53.106;7.030;2022-08-18T03:26:01;18.40;99.90
51655;DHT22;37732;53.106;7.030;2022-08-18T03:28:27;18.40;99.90
51655;DHT22;37732;53.106;7.030;2022-08-18T03:30:53;18.40;99.90
51655;DHT22;37732;53.106;7.030;2022-08-18T03:33:20;18.40;99.90
51655;DHT22;37732;53.106;7.030;2022-08-18T03:35:46;18.40;99.90
51655;DHT22;37732;53.106;7.030;2022-08-18T03:38:12;18.40;99.90
51655;DHT22;37732;53.106;7.030;2022-08-18T03:40:38;18.40;99.90
51655;DHT22;37732;53.106;7.030;2022-08-18T03:43:04;18.40;99.90
51655;DHT22;37732;53.106;7.030;2022-08-18T03:45:34;18.40;99.90
51655;DHT22;37732;53.106;7.030;2022-08-18T03:48:00;18.40;99.90
51655;DHT22;37732;53.106;7.030;2022-08-18T03:50:27;18.50;99.90
51655;DHT22;37732;53.106;7.030;2022-08-18T03:52:54;18.50;99.90
51655;DHT22;37732;53.106;7.030;2022-08-18T03:55:25;18.50;99.90
51655;DHT22;37732;53.106;7.030;2022-08-18T03:57:52;18.50;99.90
51655;DHT22;37732;53.106;7.030;2022-08-18T04:00:20;18.50;99.90
51655;DHT22;37732;53.106;7.030;2022-08-18T04:02:47;18.50;99.90
51655;DHT22;37732;53.106;7.030;2022-08-18T04:05:12;18.50;99.90
51655;DHT22;37732;53.106;7.030;2022-08-18T04:07:39;18.50;99.90
51655;DHT22;37732;53.106;7.030;2022-08-18T04:10:05;18.50;99.90
51655;DHT22;37732;53.106;7.030;2022-08-18T04:12:31;18.50;99.90
51655;DHT22;37732;53.106;7.030;2022-08-18T04:14:57;18.50;99.90
51655;DHT22;37732;53.106;7.030;2022-08-18T04:17:22;18.50;99.90
51655;DHT22;37732;53.106;7.030;2022-08-18T04:19:55;18.50;99.90
51655;DHT22;37732;53.106;7.030;2022-08-18T04:22:22;18.50;99.90
51655;DHT22;37732;53.106;7.030;2022-08-18T04:24:49;18.50;99.90
51655;DHT22;37732;53.106;7.030;2022-08-18T04:27:15;18.50;99.90
51655;DHT22;37732;53.106;7.030;2022-08-18T04:29:41;18.50;99.90
51655;DHT22;37732;53.106;7.030;2022-08-18T04:32:07;18.50;99.90
51655;DHT22;37732;53.106;7.030;2022-08-18T04:34:33;18.50;99.90
51655;DHT22;37732;53.106;7.030;2022-08-18T04:36:59;18.50;99.90
51655;DHT22;37732;53.106;7.030;2022-08-18T04:39:27;18.50;99.90
51655;DHT22;37732;53.106;7.030;2022-08-18T04:41:53;18.50;99.90
51655;DHT22;37732;53.106;7.030;2022-08-18T04:44:19;18.50;99.90
51655;DHT22;37732;53.106;7.030;2022-08-18T04:46:52;18.50;99.90
51655;DHT22;37732;53.106;7.030;2022-08-18T04:49:20;18.50;99.90
51655;DHT22;37732;53.106;7.030;2022-08-18T04:51:48;18.50;99.90
51655;DHT22;37732;53.106;7.030;2022-08-18T04:54:34;18.50;99.90
51655;DHT22;37732;53.106;7.030;2022-08-18T04:59:33;18.40;99.90
51655;DHT22;37732;53.106;7.030;2022-08-18T05:02:00;18.40;99.90
51655;DHT22;37732;53.106;7.030;2022-08-18T05:04:30;18.40;99.90
51655;DHT22;37732;53.106;7.030;2022-08-18T05:06:56;18.40;99.90
51655;DHT22;37732;53.106;7.030;2022-08-18T05:09:22;18.40;99.90
51655;DHT22;37732;53.106;7.030;2022-08-18T05:11:47;18.40;99.90
51655;DHT22;37732;53.106;7.030;2022-08-18T05:14:14;18.40;99.90
51655;DHT22;37732;53.106;7.030;2022-08-18T05:16:42;18.40;99.90
51655;DHT22;37732;53.106;7.030;2022-08-18T05:19:10;18.40;99.90
51655;DHT22;37732;53.106;7.030;2022-08-18T05:21:37;18.40;99.90
51655;DHT22;37732;53.106;7.030;2022-08-18T05:24:05;18.30;99.90
51655;DHT22;37732;53.106;7.030;2022-08-18T05:26:31;18.30;99.90
51655;DHT22;37732;53.106;7.030;2022-08-18T05:28:57;18.30;99.90
51655;DHT22;37732;53.106;7.030;2022-08-18T05:31:25;18.30;99.90
51655;DHT22;37732;53.106;7.030;2022-08-18T05:33:53;18.30;99.90
51655;DHT22;37732;53.106;7.030;2022-08-18T05:39:23;18.30;99.90
51655;DHT22;37732;53.106;7.030;2022-08-18T05:41:53;18.30;99.90
51655;DHT22;37732;53.106;7.030;2022-08-18T05:44:25;18.30;99.90
51655;DHT22;37732;53.106;7.030;2022-08-18T05:46:55;18.30;99.90
51655;DHT22;37732;53.106;7.030;2022-08-18T05:49:24;18.30;99.90
51655;DHT22;37732;53.106;7.030;2022-08-18T05:51:56;18.30;99.90
51655;DHT22;37732;53.106;7.030;2022-08-18T05:54:23;18.40;99.90
51655;DHT22;37732;53.106;7.030;2022-08-18T05:57:18;18.40;99.90
51655;DHT22;37732;53.106;7.030;2022-08-18T05:59:46;18.40;99.90
51655;DHT22;37732;53.106;7.030;2022-08-18T06:04:59;18.50;99.90
51655;DHT22;37732;53.106;7.030;2022-08-18T06:07:43;18.60;99.90
51655;DHT22;37732;53.106;7.030;2022-08-18T06:10:13;18.60;99.90
51655;DHT22;37732;53.106;7.030;2022-08-18T06:12:42;18.70;99.90
51655;DHT22;37732;53.106;7.030;2022-08-18T06:27:01;19.00;99.90
51655;DHT22;37732;53.106;7.030;2022-08-18T06:40:46;19.30;99.90
51655;DHT22;37732;53.106;7.030;2022-08-18T06:43:12;19.40;99.90
51655;DHT22;37732;53.106;7.030;2022-08-18T06:45:41;19.40;99.90
51655;DHT22;37732;53.106;7.030;2022-08-18T06:51:07;19.50;99.90
51655;DHT22;37732;53.106;7.030;2022-08-18T06:53:54;19.50;99.90
51655;DHT22;37732;53.106;7.030;2022-08-18T07:01:47;19.60;99.90
51655;DHT22;37732;53.106;7.030;2022-08-18T07:04:35;19.60;99.90
51655;DHT22;37732;53.106;7.030;2022-08-18T07:09:42;19.70;99.90
51655;DHT22;37732;53.106;7.030;2022-08-18T07:12:09;19.70;99.90
51655;DHT22;37732;53.106;7.030;2022-08-18T07:14:44;19.80;99.90
51655;DHT22;37732;53.106;7.030;2022-08-18T07:17:18;19.60;99.90
51655;DHT22;37732;53.106;7.030;2022-08-18T07:19:58;19.80;99.90
51655;DHT22;37732;53.106;7.030;2022-08-18T07:22:24;19.80;99.90
51655;DHT22;37732;53.106;7.030;2022-08-18T07:24:52;19.80;99.90
51655;DHT22;37732;53.106;7.030;2022-08-18T07:27:41;19.80;99.90
51655;DHT22;37732;53.106;7.030;2022-08-18T07:30:27;19.90;99.90
51655;DHT22;37732;53.106;7.030;2022-08-18T07:33:07;20.00;99.90
51655;DHT22;37732;53.106;7.030;2022-08-18T07:35:39;20.00;99.90
51655;DHT22;37732;53.106;7.030;2022-08-18T07:41:03;20.20;99.90
51655;DHT22;37732;53.106;7.030;2022-08-18T07:43:58;20.30;99.90
51655;DHT22;37732;53.106;7.030;2022-08-18T07:46:50;20.30;99.90
51655;DHT22;37732;53.106;7.030;2022-08-18T07:49:21;20.40;99.90
51655;DHT22;37732;53.106;7.030;2022-08-18T07:52:07;20.30;99.90
51655;DHT22;37732;53.106;7.030;2022-08-18T07:57:42;20.40;99.90
51655;DHT22;37732;53.106;7.030;2022-08-18T08:00:22;20.40;99.90
51655;DHT22;37732;53.106;7.030;2022-08-18T08:11:23;20.50;99.90
51655;DHT22;37732;53.106;7.030;2022-08-18T08:16:46;20.40;99.90
51655;DHT22;37732;53.106;7.030;2022-08-18T08:19:33;20.40;99.90
51655;DHT22;37732;53.106;7.030;2022-08-18T08:24:42;20.30;99.90
51655;DHT22;37732;53.106;7.030;2022-08-18T08:27:20;20.40;99.90
51655;DHT22;37732;53.106;7.030;2022-08-18T08:38:29;20.30;99.90
51655;DHT22;37732;53.106;7.030;2022-08-18T08:41:18;20.30;99.90
51655;DHT22;37732;53.106;7.030;2022-08-18T08:43:52;20.40;99.90
51655;DHT22;37732;53.106;7.030;2022-08-18T08:46:22;20.40;99.90
51655;DHT22;37732;53.106;7.030;2022-08-18T08:48:55;20.40;99.90
51655;DHT22;37732;53.106;7.030;2022-08-18T08:51:32;20.50;99.90
51655;DHT22;37732;53.106;7.030;2022-08-18T08:56:35;20.60;99.90
51655;DHT22;37732;53.106;7.030;2022-08-18T08:59:10;20.70;99.90
51655;DHT22;37732;53.106;7.030;2022-08-18T09:07:08;20.90;99.90
51655;DHT22;37732;53.106;7.030;2022-08-18T09:14:57;21.20;99.90
51655;DHT22;37732;53.106;7.030;2022-08-18T09:28:38;21.40;99.90
51655;DHT22;37732;53.106;7.030;2022-08-18T09:36:15;21.80;99.90
51655;DHT22;37732;53.106;7.030;2022-08-18T09:49:47;22.60;99.90
51655;DHT22;37732;53.106;7.030;2022-08-18T09:54:52;22.70;99.90
51655;DHT22;37732;53.106;7.030;2022-08-18T09:59:58;22.40;99.90
51655;DHT22;37732;53.106;7.030;2022-08-18T10:10:30;22.10;99.90
51655;DHT22;37732;53.106;7.030;2022-08-18T10:24:36;22.20;99.90
51655;DHT22;37732;53.106;7.030;2022-08-18T10:27:05;22.20;99.90
51655;DHT22;37732;53.106;7.030;2022-08-18T10:29:44;22.10;99.90
51655;DHT22;37732;53.106;7.030;2022-08-18T10:34:48;22.10;99.90
51655;DHT22;37732;53.106;7.030;2022-08-18T10:39:55;22.10;99.90
51655;DHT22;37732;53.106;7.030;2022-08-18T10:42:57;22.10;99.90
51655;DHT22;37732;53.106;7.030;2022-08-18T10:45:31;22.20;99.90
51655;DHT22;37732;53.106;7.030;2022-08-18T11:04:46;22.00;99.90
51655;DHT22;37732;53.106;7.030;2022-08-18T11:07:18;22.10;99.90
51655;DHT22;37732;53.106;7.030;2022-08-18T11:09:49;22.10;99.90
51655;DHT22;37732;53.106;7.030;2022-08-18T11:15:36;22.30;99.90
51655;DHT22;37732;53.106;7.030;2022-08-18T11:20:34;22.50;99.90
51655;DHT22;37732;53.106;7.030;2022-08-18T17:47:22;21.00;99.90
51655;DHT22;37732;53.106;7.030;2022-08-18T17:49:50;20.90;99.90
51655;DHT22;37732;53.106;7.030;2022-08-18T17:52:43;20.90;99.90
51655;DHT22;37732;53.106;7.030;2022-08-18T17:55:24;20.80;99.90
51655;DHT22;37732;53.106;7.030;2022-08-18T17:57:55;20.80;99.90
51655;DHT22;37732;53.106;7.030;2022-08-18T18:00:23;20.80;99.90
51655;DHT22;37732;53.106;7.030;2022-08-18T18:02:49;20.70;99.90
51655;DHT22;37732;53.106;7.030;2022-08-18T18:05:17;20.70;99.90
51655;DHT22;37732;53.106;7.030;2022-08-18T18:15:47;20.50;99.90
51655;DHT22;37732;53.106;7.030;2022-08-18T18:18:33;20.40;99.90
51655;DHT22;37732;53.106;7.030;2022-08-18T18:21:05;20.40;99.90
51655;DHT22;37732;53.106;7.030;2022-08-18T18:23:39;20.40;99.90
51655;DHT22;37732;53.106;7.030;2022-08-18T18:28:51;20.30;99.90
51655;DHT22;37732;53.106;7.030;2022-08-18T18:31:25;20.20;99.90
51655;DHT22;37732;53.106;7.030;2022-08-18T18:34:04;20.20;99.90
51655;DHT22;37732;53.106;7.030;2022-08-18T18:36:36;20.10;99.90
51655;DHT22;37732;53.106;7.030;2022-08-18T18:39:40;20.00;99.90
51655;DHT22;37732;53.106;7.030;2022-08-18T18:42:17;20.00;99.90
51655;DHT22;37732;53.106;7.030;2022-08-18T18:44:57;19.90;99.90
51655;DHT22;37732;53.106;7.030;2022-08-18T18:50:02;19.70;99.90
51655;DHT22;37732;53.106;7.030;2022-08-18T18:55:17;19.60;99.90
51655;DHT22;37732;53.106;7.030;2022-08-18T19:00:37;19.50;99.90
51655;DHT22;37732;53.106;7.030;2022-08-18T19:13:49;19.30;99.90
51655;DHT22;37732;53.106;7.030;2022-08-18T19:16:31;19.30;99.90
51655;DHT22;37732;53.106;7.030;2022-08-18T19:19:06;19.20;99.90
51655;DHT22;37732;53.106;7.030;2022-08-18T19:21:36;19.10;99.90
51655;DHT22;37732;53.106;7.030;2022-08-18T19:24:18;19.10;99.90
51655;DHT22;37732;53.106;7.030;2022-08-18T19:26:49;19.00;99.90
51655;DHT22;37732;53.106;7.030;2022-08-18T19:29:22;19.00;99.90
51655;DHT22;37732;53.106;7.030;2022-08-18T19:32:00;19.00;99.90
51655;DHT22;37732;53.106;7.030;2022-08-18T19:34:33;18.90;99.90
51655;DHT22;37732;53.106;7.030;2022-08-18T19:37:25;18.80;99.90
51655;DHT22;37732;53.106;7.030;2022-08-18T19:40:19;18.80;99.90
51655;DHT22;37732;53.106;7.030;2022-08-18T19:45:45;18.80;99.90
51655;DHT22;37732;53.106;7.030;2022-08-18T19:48:36;18.70;99.90
51655;DHT22;37732;53.106;7.030;2022-08-18T19:51:32;18.70;99.90
51655;DHT22;37732;53.106;7.030;2022-08-18T20:07:59;18.40;99.90
51655;DHT22;37732;53.106;7.030;2022-08-18T20:13:11;18.40;99.90
51655;DHT22;37732;53.106;7.030;2022-08-18T20:16:24;18.30;99.90
51655;DHT22;37732;53.106;7.030;2022-08-18T20:18:50;18.30;99.90
51655;DHT22;37732;53.106;7.030;2022-08-18T20:24:11;18.20;99.90
51655;DHT22;37732;53.106;7.030;2022-08-18T20:32:02;18.10;99.90
51655;DHT22;37732;53.106;7.030;2022-08-18T20:34:31;18.10;99.90
51655;DHT22;37732;53.106;7.030;2022-08-18T20:36:59;18.00;99.90
51655;DHT22;37732;53.106;7.030;2022-08-18T20:41:58;18.00;99.90
51655;DHT22;37732;53.106;7.030;2022-08-18T20:49:55;18.20;99.90
51655;DHT22;37732;53.106;7.030;2022-08-18T20:52:58;17.90;99.90
51655;DHT22;37732;53.106;7.030;2022-08-18T20:58:18;17.80;99.90
51655;DHT22;37732;53.106;7.030;2022-08-18T21:00:49;17.70;99.90
51655;DHT22;37732;53.106;7.030;2022-08-18T21:03:16;17.70;99.90
51655;DHT22;37732;53.106;7.030;2022-08-18T21:05:47;17.70;99.90
51655;DHT22;37732;53.106;7.030;2022-08-18T21:10:52;17.60;99.90
51655;DHT22;37732;53.106;7.030;2022-08-18T21:16:00;17.60;99.90
51655;DHT22;37732;53.106;7.030;2022-08-18T21:18:26;17.60;99.90
51655;DHT22;37732;53.106;7.030;2022-08-18T21:20:54;17.50;99.90
51655;DHT22;37732;53.106;7.030;2022-08-18T21:23:31;17.50;99.90
51655;DHT22;37732;53.106;7.030;2022-08-18T21:26:18;17.50;99.90
51655;DHT22;37732;53.106;7.030;2022-08-18T21:28:48;17.40;99.90
51655;DHT22;37732;53.106;7.030;2022-08-18T21:33:50;17.40;99.90
51655;DHT22;37732;53.106;7.030;2022-08-18T21:36:17;17.40;99.90
51655;DHT22;37732;53.106;7.030;2022-08-18T21:38:52;17.30;99.90
51655;DHT22;37732;53.106;7.030;2022-08-18T21:41:22;17.30;99.90
51655;DHT22;37732;53.106;7.030;2022-08-18T21:44:04;17.20;99.90
51655;DHT22;37732;53.106;7.030;2022-08-18T21:46:30;17.20;99.90
51655;DHT22;37732;53.106;7.030;2022-08-18T21:49:01;17.20;99.90
51655;DHT22;37732;53.106;7.030;2022-08-18T21:51:41;17.20;99.90
51655;DHT22;37732;53.106;7.030;2022-08-18T21:54:07;17.10;99.90
51655;DHT22;37732;53.106;7.030;2022-08-18T21:56:34;17.00;99.90
51655;DHT22;37732;53.106;7.030;2022-08-18T21:59:07;17.10;99.90
51655;DHT22;37732;53.106;7.030;2022-08-18T22:01:34;17.00;99.90
51655;DHT22;37732;53.106;7.030;2022-08-18T22:04:26;16.90;99.90
51655;DHT22;37732;53.106;7.030;2022-08-18T22:06:55;16.90;99.90
51655;DHT22;37732;53.106;7.030;2022-08-18T22:09:25;16.90;99.90
51655;DHT22;37732;53.106;7.030;2022-08-18T22:12:32;16.90;99.90
51655;DHT22;37732;53.106;7.030;2022-08-18T22:20:57;16.80;99.90
51655;DHT22;37732;53.106;7.030;2022-08-18T22:26:29;16.70;99.90
51655;DHT22;37732;53.106;7.030;2022-08-18T22:29:20;16.70;99.90
51655;DHT22;37732;53.106;7.030;2022-08-18T22:31:48;16.70;99.90
51655;DHT22;37732;53.106;7.030;2022-08-18T22:34:21;16.60;99.90
51655;DHT22;37732;53.106;7.030;2022-08-18T22:37:01;16.60;99.90
51655;DHT22;37732;53.106;7.030;2022-08-18T22:39:37;16.60;99.90
51655;DHT22;37732;53.106;7.030;2022-08-18T22:42:05;16.50;99.90
51655;DHT22;37732;53.106;7.030;2022-08-18T22:44:31;16.50;99.90
51655;DHT22;37732;53.106;7.030;2022-08-18T22:46:57;16.40;99.90
51655;DHT22;37732;53.106;7.030;2022-08-18T22:49:23;16.40;99.90
51655;DHT22;37732;53.106;7.030;2022-08-18T22:51:52;16.30;99.90
51655;DHT22;37732;53.106;7.030;2022-08-18T22:54:19;16.20;99.90
51655;DHT22;37732;53.106;7.030;2022-08-18T22:56:46;16.30;99.90
51655;DHT22;37732;53.106;7.030;2022-08-18T22:59:14;16.10;99.90
51655;DHT22;37732;53.106;7.030;2022-08-18T23:01:41;16.20;99.90
51655;DHT22;37732;53.106;7.030;2022-08-18T23:04:08;16.10;99.90
51655;DHT22;37732;53.106;7.030;2022-08-18T23:06:33;16.10;99.90
51655;DHT22;37732;53.106;7.030;2022-08-18T23:08:59;16.00;99.90
51655;DHT22;37732;53.106;7.030;2022-08-18T23:11:27;16.00;99.90
51655;DHT22;37732;53.106;7.030;2022-08-18T23:13:57;15.90;99.90
51655;DHT22;37732;53.106;7.030;2022-08-18T23:16:23;15.90;99.90
51655;DHT22;37732;53.106;7.030;2022-08-18T23:18:50;15.90;99.90
51655;DHT22;37732;53.106;7.030;2022-08-18T23:21:17;15.90;99.90
51655;DHT22;37732;53.106;7.030;2022-08-18T23:23:43;15.80;99.90
51655;DHT22;37732;53.106;7.030;2022-08-18T23:26:09;15.80;99.90
51655;DHT22;37732;53.106;7.030;2022-08-18T23:28:36;15.80;99.90
51655;DHT22;37732;53.106;7.030;2022-08-18T23:31:02;15.80;99.90
51655;DHT22;37732;53.106;7.030;2022-08-18T23:33:28;15.80;99.90
51655;DHT22;37732;53.106;7.030;2022-08-18T23:35:53;15.80;99.90
51655;DHT22;37732;53.106;7.030;2022-08-18T23:38:19;15.70;99.90
51655;DHT22;37732;53.106;7.030;2022-08-18T23:40:48;15.70;99.90
51655;DHT22;37732;53.106;7.030;2022-08-18T23:43:14;15.90;99.90
51655;DHT22;37732;53.106;7.030;2022-08-18T23:45:41;16.10;99.90
51655;DHT22;37732;53.106;7.030;2022-08-18T23:48:08;15.60;99.90
51655;DHT22;37732;53.106;7.030;2022-08-18T23:50:39;15.60;99.90
51655;DHT22;37732;53.106;7.030;2022-08-18T23:53:06;15.60;99.90
51655;DHT22;37732;53.106;7.030;2022-08-18T23:55:32;15.60;99.90
51655;DHT22;37732;53.106;7.030;2022-08-18T23:57:58;15.60;99.90
